TimeCDT,TemperatureF,Dew PointF,Humidity,Sea Level PressureIn,VisibilityMPH,Wind Direction,Wind SpeedMPH,Gust SpeedMPH,PrecipitationIn,Events,Conditions,WindDirDegrees,DateUTC
12:43 AM,69.8,62.6,78,29.55,10.0,South,16.1,23.0,0.09,,Partly Cloudy,190,2013-04-30 05:43:00
12:53 AM,72.0,62.1,71,29.53,10.0,South,16.1,-,0.09,,Clear,190,2013-04-30 05:53:00
1:35 AM,69.8,60.8,73,29.56,10.0,SSW,11.5,-,N/A,Thunderstorm,Clear,200,2013-04-30 06:35:00
1:50 AM,69.8,62.6,78,29.56,9.0,SSW,12.7,-,0.01,Rain,Light Rain,200,2013-04-30 06:50:00
1:53 AM,69.1,62.1,78,29.54,10.0,SSW,12.7,-,0.02,Rain,Light Rain,200,2013-04-30 06:53:00
2:18 AM,68.0,62.6,83,29.55,5.0,South,23.0,28.8,0.06,Rain-Thunderstorm,Heavy Rain,190,2013-04-30 07:18:00
2:33 AM,68.0,60.8,78,29.55,10.0,South,13.8,-,0.06,,Mostly Cloudy,180,2013-04-30 07:33:00
2:53 AM,68.0,61.0,78,29.52,10.0,South,12.7,-,0.06,,Mostly Cloudy,180,2013-04-30 07:53:00
3:53 AM,69.1,57.9,68,29.52,10.0,SSW,19.6,28.8,N/A,,Clear,210,2013-04-30 08:53:00
4:53 AM,68.0,55.9,65,29.52,10.0,SSW,23.0,32.2,N/A,,Clear,210,2013-04-30 09:53:00
5:53 AM,68.0,54.0,61,29.53,10.0,SSW,24.2,35.7,N/A,,Clear,210,2013-04-30 10:53:00
6:53 AM,66.9,52.0,59,29.55,10.0,SSW,26.5,-,N/A,,Clear,210,2013-04-30 11:53:00
7:53 AM,69.1,53.1,57,29.60,10.0,SW,27.6,36.8,N/A,,Clear,220,2013-04-30 12:53:00
8:53 AM,72.0,53.1,51,29.61,10.0,SW,32.2,41.4,N/A,,Clear,230,2013-04-30 13:53:00
9:53 AM,73.0,54.0,51,29.62,10.0,SW,28.8,38.0,N/A,,Clear,220,2013-04-30 14:53:00
10:53 AM,75.9,55.0,48,29.65,10.0,SW,25.3,35.7,N/A,,Clear,220,2013-04-30 15:53:00
11:53 AM,79.0,54.0,42,29.65,10.0,SW,23.0,29.9,N/A,,Clear,230,2013-04-30 16:53:00
12:53 PM,81.0,54.0,39,29.65,10.0,WSW,24.2,31.1,N/A,,Clear,250,2013-04-30 17:53:00
1:19 PM,78.8,53.6,42,29.68,10.0,NW,11.5,19.6,N/A,,Partly Cloudy,310,2013-04-30 18:19:00
1:53 PM,80.1,54.0,40,29.66,10.0,WNW,9.2,20.7,N/A,,Scattered Clouds,300,2013-04-30 18:53:00
2:53 PM,80.1,53.1,39,29.68,10.0,NNW,15.0,20.7,N/A,,Partly Cloudy,330,2013-04-30 19:53:00
3:53 PM,79.0,54.0,42,29.68,10.0,NNW,10.4,19.6,N/A,,Mostly Cloudy,340,2013-04-30 20:53:00
4:53 PM,78.1,52.0,40,29.69,10.0,North,11.5,-,N/A,,Clear,350,2013-04-30 21:53:00
5:53 PM,75.0,52.0,44,29.71,10.0,North,15.0,-,N/A,,Mostly Cloudy,350,2013-04-30 22:53:00
6:53 PM,73.0,50.0,44,29.73,10.0,North,13.8,-,N/A,,Overcast,360,2013-04-30 23:53:00
7:53 PM,69.1,48.9,49,29.74,10.0,NNE,12.7,-,N/A,,Mostly Cloudy,30,2013-05-01 00:53:00
8:53 PM,68.0,46.9,47,29.80,10.0,North,16.1,-,N/A,,Mostly Cloudy,360,2013-05-01 01:53:00
9:53 PM,62.1,46.9,58,29.86,10.0,North,18.4,33.4,N/A,,Partly Cloudy,360,2013-05-01 02:53:00
10:53 PM,59.0,45.0,60,29.87,10.0,NNE,18.4,26.5,N/A,,Clear,20,2013-05-01 03:53:00
11:53 PM,55.0,48.0,77,29.88,10.0,NNE,18.4,24.2,N/A,,Partly Cloudy,20,2013-05-01 04:53:00